Time;durP1;ratioP1;P1;durP2;ratioP2;P2;SDS_P1;SDS_P2;PMS_P1;PMS_P2;Temp;Humidity;BMP_temperature;BMP_pressure;BME280_temperature;BME280_humidity;BME280_pressure;Samples;Min_cycle;Max_cycle;Signal;HPM_P1;HPM_P2
2021/09/06 00:00:58;;;;;;;11.15;8.48;;;14.60;99.90;;;;;;4989454;28;20047;-73
2021/09/06 00:03:24;;;;;;;13.32;9.85;;;14.60;99.90;;;;;;4980512;28;20042;-73
2021/09/06 00:05:51;;;;;;;15.52;9.75;;;14.60;99.90;;;;;;4994869;28;20368;-73
2021/09/06 00:08:17;;;;;;;14.88;9.98;;;14.50;99.90;;;;;;4988393;28;20054;-73
2021/09/06 00:10:46;;;;;;;11.57;9.75;;;14.40;99.90;;;;;;4982823;28;20420;-73
2021/09/06 00:13:17;;;;;;;12.60;10.05;;;14.40;99.90;;;;;;4986309;28;20038;-73
2021/09/06 00:15:44;;;;;;;14.30;10.02;;;14.40;99.90;;;;;;4976135;28;20061;-72
2021/09/06 00:18:10;;;;;;;15.30;10.25;;;14.40;99.90;;;;;;4977134;28;20046;-73
2021/09/06 00:20:38;;;;;;;14.02;9.40;;;14.40;99.90;;;;;;4976603;28;20405;-72
2021/09/06 00:23:05;;;;;;;11.98;9.77;;;14.50;99.90;;;;;;4976961;28;20030;-73
2021/09/06 00:25:31;;;;;;;18.48;11.20;;;14.50;99.90;;;;;;4977211;28;20047;-73
2021/09/06 00:27:57;;;;;;;13.18;10.07;;;14.50;99.90;;;;;;4994264;28;20045;-74
2021/09/06 00:30:24;;;;;;;17.95;10.45;;;14.40;99.90;;;;;;4986035;28;20039;-74
2021/09/06 00:32:50;;;;;;;13.30;9.82;;;14.30;99.90;;;;;;4976196;28;20058;-73
2021/09/06 00:35:16;;;;;;;18.35;11.68;;;14.30;99.90;;;;;;4984683;28;20046;-74
2021/09/06 00:37:42;;;;;;;12.57;9.13;;;14.30;99.90;;;;;;4992242;28;20042;-73
2021/09/06 00:40:09;;;;;;;12.93;10.82;;;14.20;99.90;;;;;;4993756;28;20042;-74
2021/09/06 00:42:36;;;;;;;18.33;11.32;;;14.20;99.90;;;;;;5023663;28;20049;-73
2021/09/06 00:45:04;;;;;;;12.88;10.13;;;14.20;99.90;;;;;;4976011;28;20038;-73
2021/09/06 00:47:32;;;;;;;17.02;11.25;;;14.20;99.90;;;;;;4983188;28;20034;-74
2021/09/06 00:49:58;;;;;;;14.40;10.20;;;14.20;99.90;;;;;;4983786;28;20046;-74
2021/09/06 00:52:24;;;;;;;15.85;10.10;;;14.10;99.90;;;;;;4988103;28;20026;-75
2021/09/06 00:54:50;;;;;;;14.25;10.23;;;14.10;99.90;;;;;;4974939;28;20027;-75
2021/09/06 00:57:17;;;;;;;14.93;10.52;;;14.10;99.90;;;;;;4978365;28;20042;-74
2021/09/06 00:59:44;;;;;;;13.88;10.27;;;14.10;99.90;;;;;;4976223;28;20047;-74
2021/09/06 01:02:12;;;;;;;15.23;11.45;;;14.20;99.90;;;;;;4995257;28;20041;-73
2021/09/06 01:04:39;;;;;;;16.08;10.73;;;14.20;99.90;;;;;;4979854;28;20472;-73
2021/09/06 01:07:23;;;;;;;14.95;10.88;;;14.30;99.90;;;;;;5000661;28;20053;-73
2021/09/06 01:10:05;;;;;;;12.98;10.15;;;14.30;99.90;;;;;;4977692;28;20078;-74
2021/09/06 01:12:45;;;;;;;13.35;10.18;;;14.30;99.90;;;;;;4974385;28;20039;-73
2021/09/06 01:15:12;;;;;;;14.18;9.65;;;14.30;99.90;;;;;;4994110;28;20352;-73
2021/09/06 01:17:42;;;;;;;14.20;10.65;;;14.20;99.90;;;;;;4992207;28;20054;-73
2021/09/06 01:20:11;;;;;;;11.93;9.73;;;14.30;99.90;;;;;;4967297;28;20055;-73
2021/09/06 01:22:41;;;;;;;13.15;8.80;;;14.30;99.90;;;;;;4990577;28;20039;-73
2021/09/06 01:25:17;;;;;;;11.75;9.38;;;14.30;99.90;;;;;;4993969;28;20042;-73
2021/09/06 01:27:46;;;;;;;12.70;8.93;;;14.30;99.90;;;;;;4974088;28;20380;-73
2021/09/06 01:30:15;;;;;;;12.63;9.65;;;14.30;99.90;;;;;;4974419;28;20042;-73
2021/09/06 01:32:42;;;;;;;11.60;9.02;;;14.20;99.90;;;;;;4973707;28;20496;-73
2021/09/06 01:35:09;;;;;;;13.85;10.20;;;14.20;99.90;;;;;;4958864;28;20400;-74
2021/09/06 01:37:39;;;;;;;13.70;9.40;;;14.30;99.90;;;;;;4976686;28;20066;-73
2021/09/06 01:40:06;;;;;;;13.73;10.05;;;14.30;99.90;;;;;;4979477;28;20053;-74
2021/09/06 01:42:33;;;;;;;13.40;9.75;;;14.30;99.90;;;;;;4989951;28;20480;-74
2021/09/06 01:45:04;;;;;;;12.50;9.25;;;14.20;99.90;;;;;;4977327;28;20046;-74
2021/09/06 01:47:32;;;;;;;14.20;9.25;;;14.10;99.90;;;;;;4994473;28;20038;-74
2021/09/06 01:50:00;;;;;;;11.55;8.93;;;14.00;99.90;;;;;;5007821;28;20062;-74
2021/09/06 01:52:32;;;;;;;15.73;9.63;;;13.90;99.90;;;;;;4993107;28;20508;-73
2021/09/06 01:55:01;;;;;;;13.98;10.95;;;13.80;99.90;;;;;;4989579;28;20043;-74
2021/09/06 01:57:33;;;;;;;16.23;10.48;;;13.70;99.90;;;;;;4979795;28;20053;-74
2021/09/06 01:59:59;;;;;;;12.43;10.23;;;13.70;99.90;;;;;;4976440;28;20049;-74
2021/09/06 02:02:27;;;;;;;15.93;11.02;;;13.60;99.90;;;;;;5018672;28;20039;-74
2021/09/06 02:04:53;;;;;;;16.00;10.73;;;13.50;99.90;;;;;;4983913;28;20042;-74
2021/09/06 02:07:21;;;;;;;16.00;10.40;;;13.50;99.90;;;;;;4992641;28;20392;-73
2021/09/06 02:09:51;;;;;;;17.40;11.10;;;13.50;99.90;;;;;;4992700;28;20050;-73
2021/09/06 02:12:18;;;;;;;14.73;11.50;;;13.40;99.90;;;;;;4993180;28;20034;-73
2021/09/06 02:14:48;;;;;;;14.55;11.32;;;13.30;99.90;;;;;;4992619;28;20046;-73
2021/09/06 02:17:15;;;;;;;14.98;11.45;;;13.30;99.90;;;;;;4989364;28;20107;-74
2021/09/06 02:19:42;;;;;;;16.73;12.30;;;13.20;99.90;;;;;;4974909;28;20046;-73
2021/09/06 02:22:08;;;;;;;17.33;12.88;;;13.40;99.90;;;;;;4980918;28;20374;-73
2021/09/06 02:24:51;;;;;;;14.55;10.82;;;13.40;99.90;;;;;;4981489;28;20031;-73
2021/09/06 02:27:23;;;;;;;16.83;11.85;;;13.50;99.90;;;;;;5013617;28;20054;-74
2021/09/06 02:29:50;;;;;;;15.40;11.85;;;13.50;99.90;;;;;;4998002;28;20391;-73
2021/09/06 02:32:19;;;;;;;14.85;11.63;;;13.40;99.90;;;;;;4995222;28;20057;-73
2021/09/06 02:35:05;;;;;;;14.63;11.10;;;13.50;99.90;;;;;;4990332;28;20365;-74
2021/09/06 02:37:32;;;;;;;14.05;11.32;;;13.40;99.90;;;;;;4973858;28;20047;-73
2021/09/06 02:39:58;;;;;;;16.15;10.75;;;13.40;99.90;;;;;;5005410;28;20382;-73
2021/09/06 02:42:25;;;;;;;15.40;11.32;;;13.30;99.90;;;;;;4975390;28;20460;-74
2021/09/06 02:44:54;;;;;;;14.38;10.80;;;13.30;99.90;;;;;;5005236;28;20047;-73
2021/09/06 02:47:20;;;;;;;16.88;11.43;;;13.30;99.90;;;;;;5013711;28;20042;-73
2021/09/06 02:49:48;;;;;;;15.75;11.70;;;13.20;99.90;;;;;;4975990;28;20047;-73
2021/09/06 02:52:20;;;;;;;14.23;10.90;;;13.20;99.90;;;;;;5001470;28;20055;-73
2021/09/06 02:54:46;;;;;;;17.17;11.38;;;13.10;99.90;;;;;;4973587;28;20184;-73
2021/09/06 02:57:13;;;;;;;16.90;11.55;;;13.10;99.90;;;;;;4976145;28;20057;-74
2021/09/06 02:59:39;;;;;;;15.00;12.35;;;13.00;99.90;;;;;;4972250;28;20046;-72
2021/09/06 03:02:06;;;;;;;15.95;11.77;;;13.10;99.90;;;;;;5006277;28;20395;-73
2021/09/06 03:04:33;;;;;;;16.00;10.75;;;13.00;99.90;;;;;;4989605;28;20057;-74
2021/09/06 03:07:00;;;;;;;17.70;11.82;;;12.90;99.90;;;;;;4972681;28;20039;-73
2021/09/06 03:09:27;;;;;;;15.57;11.05;;;12.80;99.90;;;;;;4972604;28;20065;-74
2021/09/06 03:11:53;;;;;;;15.93;11.73;;;12.70;99.90;;;;;;4980148;28;20481;-74
2021/09/06 03:14:20;;;;;;;17.20;11.73;;;12.70;99.90;;;;;;4978232;28;20473;-74
2021/09/06 03:16:51;;;;;;;18.77;12.30;;;12.70;99.90;;;;;;5015873;28;20042;-73
2021/09/06 03:19:19;;;;;;;16.20;11.73;;;12.80;99.90;;;;;;4987182;28;20050;-73
2021/09/06 03:21:54;;;;;;;16.35;11.75;;;12.70;99.90;;;;;;4988085;28;20529;-74
2021/09/06 03:24:22;;;;;;;16.30;12.75;;;12.80;99.90;;;;;;4976707;28;20041;-74
2021/09/06 03:26:49;;;;;;;15.25;11.10;;;12.80;99.90;;;;;;5016758;28;20050;-73
2021/09/06 03:29:15;;;;;;;16.30;12.05;;;12.90;99.90;;;;;;4993742;28;20046;-74
2021/09/06 03:31:42;;;;;;;13.52;10.32;;;12.80;99.90;;;;;;4972652;28;20519;-73
2021/09/06 03:34:08;;;;;;;15.13;11.63;;;12.80;99.90;;;;;;4977853;28;20050;-74
2021/09/06 03:36:36;;;;;;;17.67;11.40;;;12.70;99.90;;;;;;4976376;28;20449;-72
2021/09/06 03:39:02;;;;;;;18.63;12.07;;;12.70;99.90;;;;;;5013465;28;20499;-74
2021/09/06 03:41:33;;;;;;;15.55;11.00;;;12.60;99.90;;;;;;5010644;28;20043;-74
2021/09/06 03:44:00;;;;;;;14.65;10.80;;;12.60;99.90;;;;;;4994530;28;20034;-73
2021/09/06 03:46:30;;;;;;;13.43;11.02;;;12.60;99.90;;;;;;4994927;28;20038;-73
2021/09/06 03:48:58;;;;;;;16.27;12.37;;;12.60;99.90;;;;;;5008300;28;20393;-73
2021/09/06 03:51:24;;;;;;;16.58;11.48;;;12.60;99.90;;;;;;4976225;28;20046;-73
2021/09/06 03:53:52;;;;;;;17.75;12.15;;;12.60;99.90;;;;;;4979577;28;20039;-74
2021/09/06 03:56:22;;;;;;;17.50;12.05;;;12.60;99.90;;;;;;4995414;28;20034;-74
2021/09/06 03:58:48;;;;;;;15.77;11.77;;;12.40;99.90;;;;;;4995049;28;20042;-73
2021/09/06 04:01:15;;;;;;;15.82;10.57;;;12.40;99.90;;;;;;4986776;28;20038;-74
2021/09/06 04:03:44;;;;;;;16.90;11.77;;;12.30;99.90;;;;;;5007903;28;20054;-74
2021/09/06 04:06:10;;;;;;;15.05;11.00;;;12.20;99.90;;;;;;4989410;28;20404;-73
2021/09/06 04:08:36;;;;;;;17.10;13.88;;;12.20;99.90;;;;;;4991914;28;20043;-74
2021/09/06 04:11:03;;;;;;;19.98;14.43;;;12.20;99.90;;;;;;4992759;28;20057;-74
2021/09/06 04:13:32;;;;;;;21.38;15.80;;;12.10;99.90;;;;;;4980713;28;20038;-73
2021/09/06 04:16:00;;;;;;;21.67;15.45;;;12.20;99.90;;;;;;4984226;28;20219;-73
2021/09/06 04:18:30;;;;;;;21.98;16.35;;;12.30;99.90;;;;;;4993909;28;20057;-73
2021/09/06 04:21:00;;;;;;;20.92;16.17;;;12.20;99.90;;;;;;4993129;28;20057;-73
2021/09/06 04:23:26;;;;;;;22.13;15.30;;;12.30;99.90;;;;;;4993751;28;20042;-72
2021/09/06 04:25:56;;;;;;;18.95;14.07;;;12.30;99.90;;;;;;5004101;28;20049;-72
2021/09/06 04:28:23;;;;;;;20.52;14.57;;;12.30;99.90;;;;;;4975745;28;20046;-73
2021/09/06 04:30:50;;;;;;;18.63;13.85;;;12.30;99.90;;;;;;5008992;28;20061;-72
2021/09/06 04:33:26;;;;;;;19.08;13.40;;;12.20;99.90;;;;;;4986130;28;20046;-74
2021/09/06 04:35:53;;;;;;;17.98;13.43;;;12.10;99.90;;;;;;4989955;28;20401;-73
2021/09/06 04:38:19;;;;;;;17.67;12.50;;;12.20;99.90;;;;;;4988252;28;20042;-73
2021/09/06 04:40:46;;;;;;;17.00;12.77;;;12.20;99.90;;;;;;4986469;28;20058;-73
2021/09/06 04:43:13;;;;;;;17.77;12.48;;;12.10;99.90;;;;;;4982378;28;20042;-74
2021/09/06 04:45:40;;;;;;;16.33;11.63;;;12.10;99.90;;;;;;4989973;28;20047;-74
2021/09/06 04:48:09;;;;;;;16.80;11.23;;;12.10;99.90;;;;;;4981529;28;20038;-74
2021/09/06 04:50:36;;;;;;;14.38;10.98;;;12.10;99.90;;;;;;4993394;28;20062;-73
2021/09/06 04:53:02;;;;;;;17.70;10.70;;;12.20;99.90;;;;;;4977847;28;20409;-73
2021/09/06 04:55:28;;;;;;;17.02;11.00;;;12.10;99.90;;;;;;4975414;28;20039;-73
2021/09/06 04:57:55;;;;;;;14.10;8.77;;;12.00;99.90;;;;;;4992225;28;20047;-74
2021/09/06 05:00:22;;;;;;;12.65;9.00;;;12.00;99.90;;;;;;4992002;28;20392;-74
2021/09/06 05:02:49;;;;;;;12.70;8.00;;;12.00;99.90;;;;;;5007766;28;20054;-72
2021/09/06 05:05:16;;;;;;;13.40;8.68;;;12.00;99.90;;;;;;4992350;28;20046;-74
2021/09/06 05:07:43;;;;;;;11.70;7.65;;;12.10;99.90;;;;;;4988898;28;20389;-74
2021/09/06 05:10:09;;;;;;;12.25;7.55;;;12.00;99.90;;;;;;5009450;28;20054;-74
2021/09/06 05:12:36;;;;;;;12.20;7.78;;;12.00;99.90;;;;;;5010202;28;20042;-74
2021/09/06 05:15:03;;;;;;;13.20;9.30;;;12.10;99.90;;;;;;4975337;28;20043;-73
2021/09/06 05:17:31;;;;;;;13.98;9.10;;;12.20;99.90;;;;;;4975752;28;20039;-73
2021/09/06 05:19:58;;;;;;;14.52;8.50;;;12.30;99.90;;;;;;4975211;28;20511;-73
2021/09/06 05:22:25;;;;;;;15.80;7.63;;;12.40;99.90;;;;;;4990736;28;20042;-73
2021/09/06 05:24:54;;;;;;;10.57;8.07;;;12.40;99.90;;;;;;4993561;28;20034;-73
2021/09/06 05:27:23;;;;;;;12.52;8.20;;;12.50;99.90;;;;;;5006569;28;20049;-74
2021/09/06 05:29:49;;;;;;;10.32;8.30;;;12.60;99.90;;;;;;4990270;28;20042;-74
2021/09/06 05:32:16;;;;;;;12.05;8.35;;;12.70;99.90;;;;;;4983977;28;20384;-74
2021/09/06 05:34:42;;;;;;;12.65;7.75;;;13.10;99.90;;;;;;4988778;28;20384;-73
2021/09/06 05:37:09;;;;;;;11.55;7.85;;;14.00;99.90;;;;;;4973977;28;20038;-74
2021/09/06 05:39:36;;;;;;;9.27;6.05;;;15.10;99.90;;;;;;4975758;28;20500;-74
2021/09/06 05:42:04;;;;;;;9.32;6.35;;;16.10;99.90;;;;;;4986281;28;20489;-73
2021/09/06 05:44:31;;;;;;;8.50;6.55;;;16.40;99.90;;;;;;5020752;28;20046;-73
2021/09/06 05:47:01;;;;;;;7.82;5.28;;;16.40;99.90;;;;;;4973665;28;20034;-74
2021/09/06 05:49:30;;;;;;;7.68;4.60;;;16.50;99.50;;;;;;4974031;28;20046;-74
2021/09/06 05:51:56;;;;;;;7.25;4.85;;;17.50;97.00;;;;;;4990594;28;20061;-74
2021/09/06 05:54:34;;;;;;;9.43;5.90;;;18.30;93.90;;;;;;4992117;28;20425;-75
2021/09/06 05:57:01;;;;;;;6.97;5.22;;;18.10;92.60;;;;;;4981805;28;20038;-75
2021/09/06 05:59:29;;;;;;;7.57;5.13;;;17.80;93.20;;;;;;4980878;28;20047;-74
2021/09/06 06:01:55;;;;;;;8.68;5.53;;;17.80;93.40;;;;;;4975021;28;20039;-76
2021/09/06 06:04:22;;;;;;;7.57;5.55;;;19.10;91.20;;;;;;4987716;28;20062;-77
2021/09/06 06:06:53;;;;;;;6.18;4.55;;;20.30;89.00;;;;;;4974559;28;20035;-76
2021/09/06 06:09:19;;;;;;;7.40;5.22;;;21.20;82.90;;;;;;4974854;28;20054;-76
2021/09/06 06:11:46;;;;;;;6.78;5.50;;;21.50;78.60;;;;;;4973449;28;20473;-75
2021/09/06 06:14:19;;;;;;;8.10;5.70;;;21.40;78.20;;;;;;4985384;28;20049;-77
2021/09/06 06:16:49;;;;;;;8.50;5.72;;;21.00;79.40;;;;;;4973564;28;20050;-76
2021/09/06 06:19:17;;;;;;;7.25;4.97;;;20.60;80.80;;;;;;4978323;28;20050;-76
2021/09/06 06:22:06;;;;;;;7.55;5.53;;;20.40;81.50;;;;;;4974220;28;20385;-75
2021/09/06 06:24:44;;;;;;;9.18;6.13;;;20.10;83.30;;;;;;4988464;28;20043;-73
2021/09/06 06:27:22;;;;;;;9.05;6.65;;;19.80;84.90;;;;;;4973556;28;20050;-75
2021/09/06 06:29:49;;;;;;;8.30;5.63;;;19.80;85.60;;;;;;4972846;28;20400;-76
2021/09/06 06:32:16;;;;;;;8.63;6.22;;;20.40;85.40;;;;;;5006410;28;20062;-77
2021/09/06 06:34:45;;;;;;;9.65;6.85;;;20.90;83.40;;;;;;4975724;28;20476;-77
2021/09/06 06:37:12;;;;;;;8.27;6.60;;;21.40;81.50;;;;;;5010201;28;20060;-79
2021/09/06 06:39:38;;;;;;;9.80;7.50;;;21.70;80.50;;;;;;4992973;28;20034;-80
2021/09/06 06:42:04;;;;;;;9.45;6.68;;;21.40;81.00;;;;;;4991296;28;20053;-75
2021/09/06 06:44:33;;;;;;;11.35;7.47;;;20.50;83.70;;;;;;4977713;28;20353;-78
2021/09/06 06:47:00;;;;;;;9.13;6.35;;;20.20;85.20;;;;;;4987132;28;20412;-79
2021/09/06 06:49:26;;;;;;;12.52;7.18;;;20.20;85.70;;;;;;4975000;28;20433;-77
2021/09/06 06:51:53;;;;;;;8.90;6.45;;;20.20;86.50;;;;;;4982229;28;20051;-78
2021/09/06 06:54:20;;;;;;;9.48;6.75;;;20.70;84.70;;;;;;4980184;28;20042;-77
2021/09/06 06:56:46;;;;;;;9.95;6.85;;;20.90;84.10;;;;;;4988243;28;20038;-76
2021/09/06 06:59:13;;;;;;;9.70;7.20;;;20.20;85.50;;;;;;5039698;28;20045;-77
2021/09/06 07:01:40;;;;;;;9.65;7.28;;;19.80;87.40;;;;;;5024190;28;20047;-78
2021/09/06 07:04:06;;;;;;;8.57;6.32;;;19.60;88.10;;;;;;4983397;28;20038;-80
2021/09/06 07:06:36;;;;;;;9.40;6.07;;;19.80;88.10;;;;;;5009588;28;20391;-80
2021/09/06 07:09:02;;;;;;;8.25;6.25;;;20.30;85.90;;;;;;4993537;28;20038;-80
2021/09/06 07:11:30;;;;;;;9.82;6.57;;;20.60;83.50;;;;;;4992696;28;20042;-80
2021/09/06 07:14:00;;;;;;;10.73;7.97;;;21.30;82.60;;;;;;4990992;28;20043;-80
2021/09/06 07:16:27;;;;;;;656.60;102.10;;;22.10;79.80;;;;;;4999139;28;20053;-80
2021/09/06 07:18:54;;;;;;;17.50;16.30;;;21.30;81.70;;;;;;4973041;28;20043;-79
2021/09/06 07:21:20;;;;;;;9.80;7.60;;;21.10;82.60;;;;;;4975028;28;20326;-81
2021/09/06 07:23:47;;;;;;;153.00;141.23;;;21.00;83.40;;;;;;4973276;28;20053;-80
2021/09/06 07:26:14;;;;;;;1999.90;999.90;;;21.50;82.10;;;;;;4973365;28;20042;-81
2021/09/06 07:28:40;;;;;;;1999.90;999.90;;;21.30;82.00;;;;;;4973267;28;20039;-79
2021/09/06 07:31:09;;;;;;;1999.90;999.90;;;21.90;80.40;;;;;;4980296;28;20047;-79
2021/09/06 07:33:37;;;;;;;1999.90;999.90;;;21.80;80.60;;;;;;5015401;28;20051;-80
2021/09/06 07:36:04;;;;;;;1999.90;999.90;;;22.60;79.50;;;;;;4981414;28;20233;-80
2021/09/06 07:38:30;;;;;;;1999.90;999.90;;;23.10;75.20;;;;;;5007394;28;20046;-80
2021/09/06 07:40:56;;;;;;;10.02;6.72;;;23.10;75.40;;;;;;4983267;28;20055;-80
2021/09/06 07:43:23;;;;;;;7.35;6.15;;;22.30;76.50;;;;;;4983548;28;20046;-80
2021/09/06 07:45:51;;;;;;;8.90;5.97;;;22.10;77.90;;;;;;4988498;28;20378;-80
2021/09/06 07:48:18;;;;;;;8.25;6.00;;;22.20;78.20;;;;;;5005761;28;20042;-81
2021/09/06 07:50:48;;;;;;;6.88;5.32;;;23.10;74.30;;;;;;4978781;28;20043;-80
2021/09/06 07:53:16;;;;;;;7.95;5.85;;;22.80;74.90;;;;;;4992046;28;20047;-80
2021/09/06 07:55:43;;;;;;;7.13;5.93;;;22.70;75.70;;;;;;5007986;28;20061;-80
2021/09/06 07:58:10;;;;;;;8.32;6.30;;;22.30;76.50;;;;;;4984987;28;20050;-78
2021/09/06 08:00:37;;;;;;;8.43;5.80;;;21.70;77.80;;;;;;5016452;28;20399;-79
2021/09/06 08:03:05;;;;;;;9.52;5.97;;;21.60;79.80;;;;;;4987789;28;20042;-80
2021/09/06 08:05:35;;;;;;;10.43;7.03;;;22.30;78.10;;;;;;4974335;28;20474;-79
2021/09/06 08:08:07;;;;;;;9.63;5.60;;;22.60;77.10;;;;;;4978082;28;20050;-80
2021/09/06 08:10:34;;;;;;;8.05;6.25;;;22.80;75.50;;;;;;4995418;28;20057;-79
2021/09/06 08:13:00;;;;;;;8.10;5.63;;;22.30;77.20;;;;;;4988472;28;20046;-80
2021/09/06 08:15:29;;;;;;;7.80;5.25;;;22.80;78.00;;;;;;4972991;28;20054;-78
2021/09/06 08:17:57;;;;;;;6.13;4.35;;;23.30;74.30;;;;;;4972165;28;20038;-79
2021/09/06 08:20:25;;;;;;;8.07;5.38;;;22.90;75.40;;;;;;4976489;28;20460;-80
2021/09/06 08:22:52;;;;;;;5.85;4.07;;;22.40;75.60;;;;;;5010606;28;20050;-79
2021/09/06 08:25:19;;;;;;;6.65;4.43;;;22.50;76.10;;;;;;4978386;28;20055;-79
2021/09/06 08:27:45;;;;;;;6.43;4.18;;;22.90;74.90;;;;;;4990009;28;20069;-77
2021/09/06 08:30:17;;;;;;;8.40;4.40;;;22.60;76.00;;;;;;4995945;28;20042;-80
2021/09/06 08:32:46;;;;;;;6.35;4.65;;;23.50;74.50;;;;;;4993867;28;20038;-78
2021/09/06 08:35:13;;;;;;;7.18;4.78;;;24.50;71.60;;;;;;5005200;28;20498;-80
2021/09/06 08:37:42;;;;;;;8.35;5.80;;;25.30;70.40;;;;;;4997562;28;20396;-79
2021/09/06 08:40:12;;;;;;;7.57;5.10;;;24.60;70.80;;;;;;4978953;28;20051;-79
2021/09/06 08:42:39;;;;;;;7.57;5.20;;;24.10;71.50;;;;;;4973865;28;20053;-79
2021/09/06 08:45:09;;;;;;;7.68;5.45;;;24.00;70.60;;;;;;4986209;28;20034;-78
2021/09/06 08:47:36;;;;;;;9.02;6.03;;;24.60;69.30;;;;;;4995783;28;20038;-79
2021/09/06 08:50:08;;;;;;;8.13;5.95;;;25.20;67.30;;;;;;4986334;28;20046;-80
2021/09/06 08:52:35;;;;;;;6.75;4.63;;;24.90;68.50;;;;;;4987636;28;20057;-79
2021/09/06 08:55:01;;;;;;;6.30;5.15;;;25.00;70.20;;;;;;4994931;28;20049;-81
2021/09/06 08:57:27;;;;;;;6.53;4.85;;;26.30;67.40;;;;;;4977502;28;20452;-80
2021/09/06 08:59:58;;;;;;;8.07;5.85;;;25.90;65.20;;;;;;4977252;28;20469;-79
2021/09/06 09:02:41;;;;;;;7.13;4.97;;;25.00;67.00;;;;;;4975906;28;20035;-79
2021/09/06 09:05:28;;;;;;;9.63;6.25;;;23.90;70.50;;;;;;4990430;28;20049;-79
2021/09/06 09:08:21;;;;;;;7.07;5.35;;;23.90;69.80;;;;;;4986597;28;20050;-81
2021/09/06 09:11:01;;;;;;;6.70;5.35;;;25.00;66.30;;;;;;4977499;28;20400;-80
2021/09/06 09:13:56;;;;;;;6.85;5.45;;;26.20;66.10;;;;;;4962297;28;20038;-80
2021/09/06 09:16:56;;;;;;;6.97;5.22;;;26.40;64.10;;;;;;4993985;28;20034;-80
2021/09/06 09:19:46;;;;;;;6.93;6.00;;;25.50;65.60;;;;;;4989626;28;20035;-80
2021/09/06 09:22:34;;;;;;;8.02;5.18;;;25.50;65.80;;;;;;5008660;28;20066;-80
2021/09/06 09:25:24;;;;;;;7.88;5.60;;;26.40;63.60;;;;;;4981814;28;20047;-80
2021/09/06 09:28:10;;;;;;;7.30;5.07;;;27.40;62.50;;;;;;4975532;28;20043;-82
2021/09/06 09:31:11;;;;;;;8.35;5.55;;;26.40;63.10;;;;;;4981255;28;20042;-76
2021/09/06 09:33:53;;;;;;;7.53;5.00;;;25.60;65.40;;;;;;4994991;28;20431;-80
2021/09/06 09:36:36;;;;;;;8.25;5.05;;;26.10;63.10;;;;;;4990561;28;20050;-80
2021/09/06 09:39:14;;;;;;;8.00;5.82;;;26.50;62.90;;;;;;4975463;28;20031;-80
2021/09/06 09:41:43;;;;;;;5.53;4.33;;;26.40;63.50;;;;;;4976250;28;20034;-80
2021/09/06 09:44:26;;;;;;;7.45;5.13;;;27.20;62.60;;;;;;4975267;28;20752;-80
2021/09/06 09:47:19;;;;;;;6.13;4.45;;;27.50;61.10;;;;;;4988074;28;20054;-80
2021/09/06 09:49:57;;;;;;;5.00;4.00;;;27.10;59.10;;;;;;4989973;28;20042;-79
2021/09/06 09:52:25;;;;;;;7.20;5.10;;;26.20;60.80;;;;;;4986151;28;20034;-82
2021/09/06 09:54:53;;;;;;;7.57;4.75;;;25.70;62.60;;;;;;4984602;28;20035;-82
2021/09/06 09:57:25;;;;;;;5.70;4.25;;;25.20;62.80;;;;;;4978674;28;20039;-82
2021/09/06 09:59:52;;;;;;;7.07;4.35;;;25.10;62.60;;;;;;4992559;28;20053;-82
2021/09/06 10:02:27;;;;;;;9.95;4.75;;;24.70;62.80;;;;;;4989071;28;20051;-84
2021/09/06 10:04:56;;;;;;;7.95;4.55;;;24.50;63.90;;;;;;4985035;28;20373;-83
2021/09/06 10:07:26;;;;;;;6.05;4.10;;;24.50;63.80;;;;;;4989113;28;20047;-81
2021/09/06 10:09:53;;;;;;;5.90;4.75;;;24.80;62.20;;;;;;4976065;28;20417;-84
2021/09/06 10:12:21;;;;;;;5.85;4.60;;;24.60;62.80;;;;;;4978789;28;20054;-82
2021/09/06 10:14:49;;;;;;;6.03;3.97;;;24.70;62.90;;;;;;4976765;28;20396;-83
2021/09/06 10:17:16;;;;;;;5.97;4.25;;;24.70;61.30;;;;;;4985538;28;20053;-82
2021/09/06 10:19:50;;;;;;;5.47;4.45;;;24.60;63.00;;;;;;4975876;28;20043;-81
2021/09/06 10:22:21;;;;;;;6.40;4.55;;;24.90;61.30;;;;;;4977298;28;20037;-82
2021/09/06 10:24:58;;;;;;;6.03;4.70;;;25.00;60.30;;;;;;4981763;28;20038;-81
2021/09/06 10:27:42;;;;;;;5.30;3.80;;;25.00;59.70;;;;;;4981204;28;20042;-83
2021/09/06 10:30:13;;;;;;;5.72;3.47;;;24.90;59.70;;;;;;4975664;28;20296;-81
2021/09/06 10:32:42;;;;;;;4.68;3.30;;;25.00;60.20;;;;;;4993809;28;20392;-82
2021/09/06 10:35:09;;;;;;;6.47;3.95;;;25.50;60.80;;;;;;4977326;28;20051;-82
2021/09/06 10:37:39;;;;;;;5.63;4.35;;;25.90;58.10;;;;;;4974258;28;20069;-82
2021/09/06 10:40:11;;;;;;;6.32;3.90;;;25.90;56.30;;;;;;4993668;28;20053;-82
2021/09/06 10:42:41;;;;;;;5.97;3.63;;;26.00;54.60;;;;;;4992752;28;20050;-84
2021/09/06 10:45:09;;;;;;;5.70;3.40;;;25.80;55.10;;;;;;4973307;28;20049;-83
2021/09/06 10:47:40;;;;;;;5.05;3.63;;;25.70;54.60;;;;;;4981211;28;20061;-83
2021/09/06 10:50:17;;;;;;;6.85;4.50;;;25.90;56.00;;;;;;4983377;28;20054;-82
2021/09/06 10:52:48;;;;;;;5.75;4.18;;;26.00;54.60;;;;;;4974546;28;20041;-83
2021/09/06 10:55:19;;;;;;;7.38;4.30;;;25.90;54.10;;;;;;4991277;28;20045;-82
2021/09/06 10:57:46;;;;;;;9.45;5.47;;;25.80;54.40;;;;;;4990929;28;20361;-82
2021/09/06 11:00:23;;;;;;;6.50;4.18;;;25.70;54.50;;;;;;4978506;28;20041;-84
2021/09/06 11:02:52;;;;;;;4.78;3.38;;;25.60;54.30;;;;;;4981624;28;20054;-81
2021/09/06 11:05:25;;;;;;;6.78;3.95;;;25.70;54.30;;;;;;4983431;28;20042;-83
2021/09/06 11:08:04;;;;;;;5.60;4.10;;;25.90;53.20;;;;;;4984392;28;20050;-80
2021/09/06 11:10:31;;;;;;;5.13;3.78;;;25.80;53.90;;;;;;4976383;28;20400;-81
2021/09/06 11:13:00;;;;;;;5.63;3.72;;;26.00;53.50;;;;;;4973728;28;20053;-81
2021/09/06 11:15:27;;;;;;;5.55;3.92;;;26.10;53.50;;;;;;4975028;28;20043;-80
2021/09/06 11:17:56;;;;;;;5.88;4.20;;;26.20;54.00;;;;;;4980450;28;20031;-82
2021/09/06 11:20:23;;;;;;;4.97;4.25;;;26.30;54.30;;;;;;4988368;28;20038;-85
2021/09/06 11:22:49;;;;;;;4.93;4.20;;;26.30;53.90;;;;;;4992604;28;20085;-80
2021/09/06 11:25:27;;;;;;;5.05;3.97;;;26.20;53.60;;;;;;4994533;28;20045;-85
2021/09/06 11:28:15;;;;;;;5.32;3.85;;;26.30;53.30;;;;;;4988440;28;20022;-81
2021/09/06 11:30:45;;;;;;;7.25;4.35;;;26.40;53.20;;;;;;4994614;28;20050;-80
2021/09/06 11:33:13;;;;;;;6.93;4.85;;;26.40;53.10;;;;;;4990662;28;20484;-82
2021/09/06 11:35:42;;;;;;;5.53;3.80;;;26.20;53.00;;;;;;4979449;28;20039;-83
2021/09/06 11:38:09;;;;;;;6.05;4.00;;;26.10;52.50;;;;;;4974665;28;20031;-82
2021/09/06 11:40:37;;;;;;;5.32;3.83;;;26.10;53.10;;;;;;4986886;28;20388;-82
2021/09/06 11:43:05;;;;;;;6.25;4.28;;;26.10;52.40;;;;;;4992812;28;20057;-82
2021/09/06 11:45:31;;;;;;;8.02;3.85;;;26.20;52.40;;;;;;4978226;28;20038;-82
2021/09/06 11:48:03;;;;;;;6.35;3.88;;;26.50;51.90;;;;;;4974325;28;20056;-81
2021/09/06 11:50:35;;;;;;;5.30;3.97;;;26.40;51.50;;;;;;4973902;28;20039;-81
2021/09/06 11:53:04;;;;;;;5.03;3.65;;;26.30;51.70;;;;;;4979773;28;20034;-82
2021/09/06 11:55:31;;;;;;;5.32;3.92;;;26.40;52.50;;;;;;4997401;28;20039;-83
2021/09/06 11:58:12;;;;;;;6.28;4.05;;;26.60;51.30;;;;;;5002168;28;20034;-79
2021/09/06 12:00:40;;;;;;;6.90;4.35;;;26.70;52.30;;;;;;4997832;28;20037;-84
2021/09/06 12:03:08;;;;;;;4.82;3.25;;;27.00;50.80;;;;;;5007862;28;20038;-83
2021/09/06 12:05:47;;;;;;;4.13;3.08;;;27.00;48.10;;;;;;4986376;28;20050;-82
2021/09/06 12:08:15;;;;;;;4.93;3.15;;;27.00;48.10;;;;;;4996242;28;20034;-82
2021/09/06 12:10:44;;;;;;;4.78;3.38;;;27.30;48.70;;;;;;4985535;28;20043;-84
2021/09/06 12:13:19;;;;;;;4.28;3.00;;;27.30;47.70;;;;;;4995249;28;20054;-82
2021/09/06 12:15:55;;;;;;;4.88;3.50;;;27.00;47.70;;;;;;4998524;28;20460;-81
2021/09/06 12:18:23;;;;;;;3.78;2.83;;;27.00;48.20;;;;;;4985995;28;20034;-83
2021/09/06 12:20:59;;;;;;;3.85;3.00;;;26.80;48.10;;;;;;4999538;28;20038;-81
2021/09/06 12:23:35;;;;;;;4.05;2.97;;;27.00;48.40;;;;;;4992361;28;20061;-83
2021/09/06 12:26:03;;;;;;;4.32;2.83;;;27.40;48.00;;;;;;4977424;28;20033;-84
2021/09/06 12:28:30;;;;;;;4.28;2.80;;;27.20;47.20;;;;;;4978110;28;20500;-81
2021/09/06 12:31:05;;;;;;;3.72;2.60;;;27.30;47.10;;;;;;4977196;28;20397;-81
2021/09/06 12:33:32;;;;;;;3.60;2.40;;;27.10;47.40;;;;;;5009356;28;20038;-80
2021/09/06 12:36:03;;;;;;;5.18;3.15;;;27.60;47.30;;;;;;4989506;28;20501;-80
2021/09/06 12:38:34;;;;;;;4.43;3.15;;;27.70;47.00;;;;;;4984840;28;20039;-81
2021/09/06 12:41:01;;;;;;;3.90;2.72;;;28.00;47.50;;;;;;4997780;28;20038;-81
2021/09/06 12:43:28;;;;;;;3.83;2.67;;;27.70;46.60;;;;;;4987809;28;20042;-82
2021/09/06 12:45:54;;;;;;;4.00;2.65;;;27.50;47.20;;;;;;4987595;28;20046;-84
2021/09/06 12:48:21;;;;;;;3.38;2.35;;;27.50;46.50;;;;;;4991582;28;20046;-83
2021/09/06 12:50:48;;;;;;;4.93;2.53;;;27.70;46.80;;;;;;4994261;28;20042;-82